createdAt,value
2023-03-19T00:02:17.649Z,17.33
2023-03-19T00:04:47.328Z,14.10
2023-03-19T00:07:17.210Z,12.87
2023-03-19T00:09:48.537Z,14.90
2023-03-19T00:12:17.632Z,16.83
2023-03-19T00:14:46.922Z,15.53
2023-03-19T00:17:16.459Z,14.63
2023-03-19T00:19:45.467Z,20.20
2023-03-19T00:22:14.360Z,24.87
2023-03-19T00:24:43.792Z,27.23
2023-03-19T00:27:14.358Z,29.77
2023-03-19T00:29:43.405Z,32.07
2023-03-19T00:32:12.601Z,28.80
2023-03-19T00:34:42.063Z,29.17
2023-03-19T00:37:12.492Z,29.20
2023-03-19T00:39:41.490Z,30.77
2023-03-19T00:42:10.984Z,27.80
2023-03-19T00:44:41.641Z,26.30
2023-03-19T00:47:10.785Z,26.37
2023-03-19T00:49:39.714Z,28.53
2023-03-19T00:52:09.313Z,28.07
2023-03-19T00:54:39.493Z,26.30
2023-03-19T00:57:10.052Z,32.47
2023-03-19T00:59:40.521Z,59.33
2023-03-19T01:02:09.672Z,39.07
2023-03-19T01:04:38.588Z,46.07
2023-03-19T01:07:14.860Z,70.07
2023-03-19T01:09:44.219Z,51.87
2023-03-19T01:12:13.062Z,30.33
2023-03-19T01:14:43.458Z,30.07
2023-03-19T01:17:12.623Z,32.97
2023-03-19T01:19:41.988Z,24.53
2023-03-19T01:22:11.082Z,18.43
2023-03-19T01:24:41.585Z,15.13
2023-03-19T01:27:11.403Z,17.03
2023-03-19T01:29:40.665Z,17.37
2023-03-19T01:32:19.853Z,18.97
2023-03-19T01:35:08.438Z,19.03
2023-03-19T01:37:37.674Z,17.13
2023-03-19T01:40:07.827Z,12.97
2023-03-19T01:42:52.017Z,12.50
2023-03-19T01:45:43.853Z,13.07
2023-03-19T01:48:40.866Z,13.63
2023-03-19T01:51:17.351Z,14.23
2023-03-19T01:54:01.127Z,13.20
2023-03-19T01:56:53.389Z,14.73
2023-03-19T01:59:31.577Z,15.63
2023-03-19T02:02:25.416Z,15.33
2023-03-19T02:05:02.109Z,16.40
2023-03-19T02:07:34.008Z,15.47
2023-03-19T02:10:06.440Z,15.37
2023-03-19T02:12:35.789Z,16.30
2023-03-19T02:15:05.315Z,17.93
2023-03-19T02:17:57.998Z,24.67
2023-03-19T02:20:59.815Z,29.77
2023-03-19T02:27:02.845Z,20.27
2023-03-19T02:29:32.285Z,17.93
2023-03-19T02:32:07.703Z,16.97
2023-03-19T02:34:42.419Z,15.80
2023-03-19T02:37:33.650Z,14.20
2023-03-19T02:40:08.181Z,12.77
2023-03-19T02:42:57.085Z,12.67
2023-03-19T02:45:31.684Z,13.53
2023-03-19T02:48:01.369Z,13.00
2023-03-19T02:50:30.715Z,12.77
2023-03-19T02:52:59.630Z,13.43
2023-03-19T02:55:28.689Z,13.07
2023-03-19T02:57:58.931Z,12.37
2023-03-19T03:00:28.503Z,12.33
2023-03-19T03:02:59.342Z,11.73
2023-03-19T03:05:28.400Z,11.37
2023-03-19T03:07:57.283Z,11.50
2023-03-19T03:10:26.283Z,12.23
2023-03-19T03:12:55.602Z,12.60
2023-03-19T03:15:25.843Z,10.87
2023-03-19T03:17:56.611Z,11.20
2023-03-19T03:20:26.199Z,11.40
2023-03-19T03:22:55.131Z,11.27
2023-03-19T03:25:24.429Z,11.10
2023-03-19T03:27:53.488Z,10.80
2023-03-19T03:30:22.597Z,11.33
2023-03-19T03:32:53.133Z,10.90
2023-03-19T03:35:23.266Z,11.90
2023-03-19T03:37:53.279Z,12.00
2023-03-19T03:40:22.534Z,17.43
2023-03-19T03:42:52.588Z,18.70
2023-03-19T03:45:22.285Z,34.37
2023-03-19T03:47:54.624Z,18.27
2023-03-19T03:50:23.629Z,13.93
2023-03-19T03:52:55.843Z,14.20
2023-03-19T03:55:24.837Z,13.27
2023-03-19T03:57:56.857Z,14.47
2023-03-19T04:00:26.941Z,14.00
2023-03-19T04:02:58.000Z,14.90
2023-03-19T04:05:27.390Z,14.20
2023-03-19T04:07:57.309Z,14.70
2023-03-19T04:10:26.431Z,15.57
2023-03-19T04:12:59.562Z,15.53
2023-03-19T04:15:30.859Z,16.10
2023-03-19T04:18:02.026Z,16.70
2023-03-19T04:20:31.421Z,16.97
2023-03-19T04:23:00.482Z,15.53
2023-03-19T04:25:29.432Z,16.20
2023-03-19T04:27:59.506Z,18.20
2023-03-19T04:30:31.608Z,21.43
2023-03-19T04:33:05.098Z,23.80
2023-03-19T04:35:34.288Z,23.97
2023-03-19T04:38:03.210Z,23.87
2023-03-19T04:40:32.557Z,23.87
2023-03-19T04:43:02.040Z,24.60
2023-03-19T04:45:37.020Z,22.83
2023-03-19T04:48:07.849Z,23.20
2023-03-19T04:50:38.479Z,21.33
2023-03-19T04:53:08.203Z,24.07
2023-03-19T04:55:38.391Z,21.93
2023-03-19T04:58:11.552Z,21.63
2023-03-19T05:00:41.330Z,21.67
2023-03-19T05:03:11.877Z,20.40
2023-03-19T05:05:40.815Z,24.60
2023-03-19T05:08:10.786Z,21.30
2023-03-19T05:10:39.800Z,22.20
2023-03-19T05:13:09.507Z,21.43
2023-03-19T05:15:44.611Z,22.90
2023-03-19T05:18:16.839Z,20.13
2023-03-19T05:20:46.915Z,20.60
2023-03-19T05:23:23.133Z,21.17
2023-03-19T05:26:12.299Z,24.07
2023-03-19T05:29:01.490Z,24.53
2023-03-19T05:31:40.052Z,25.27
2023-03-19T05:34:10.718Z,28.23
2023-03-19T05:36:40.326Z,27.43
2023-03-19T05:39:16.971Z,32.17
2023-03-19T05:41:46.716Z,27.20
2023-03-19T05:44:20.390Z,28.43
2023-03-19T05:47:10.218Z,33.00
2023-03-19T05:49:43.113Z,31.40
2023-03-19T05:52:12.712Z,27.23
2023-03-19T05:54:41.844Z,27.87
2023-03-19T05:57:29.266Z,32.17
2023-03-19T06:00:06.841Z,28.27
2023-03-19T06:02:36.021Z,29.57
2023-03-19T06:05:19.845Z,30.20
2023-03-19T06:07:49.057Z,36.60
2023-03-19T06:10:36.704Z,33.40
2023-03-19T06:13:10.353Z,32.30
2023-03-19T06:15:42.616Z,29.17
2023-03-19T06:18:11.628Z,38.20
2023-03-19T06:20:42.202Z,34.80
2023-03-19T06:23:16.284Z,31.37
2023-03-19T06:25:45.731Z,26.70
2023-03-19T06:28:15.542Z,32.83
2023-03-19T06:30:46.720Z,24.73
2023-03-19T06:33:42.102Z,23.70
2023-03-19T06:36:13.556Z,21.77
2023-03-19T06:38:42.563Z,17.10
2023-03-19T06:41:11.760Z,13.57
2023-03-19T06:43:42.308Z,17.67
2023-03-19T06:46:12.404Z,15.67
2023-03-19T06:48:41.456Z,17.43
2023-03-19T06:51:10.318Z,27.93
2023-03-19T06:53:41.145Z,35.37
2023-03-19T06:56:10.398Z,38.53
2023-03-19T06:58:39.283Z,43.07
2023-03-19T07:01:08.821Z,40.87
2023-03-19T07:03:37.801Z,39.27
2023-03-19T07:06:07.480Z,43.40
2023-03-19T07:08:37.116Z,44.23
2023-03-19T07:11:08.560Z,41.47
2023-03-19T07:13:38.327Z,41.03
2023-03-19T07:16:08.187Z,76.23
2023-03-19T07:18:56.448Z,87.90
2023-03-19T07:21:25.525Z,60.23
2023-03-19T07:23:54.569Z,51.33
2023-03-19T07:26:25.039Z,52.10
2023-03-19T07:28:53.919Z,53.90
2023-03-19T07:31:23.099Z,70.80
2023-03-19T07:33:59.052Z,63.30
2023-03-19T07:36:28.433Z,60.77
2023-03-19T07:39:16.163Z,58.83
2023-03-19T07:41:48.759Z,54.97
2023-03-19T07:44:18.417Z,58.90
2023-03-19T07:46:47.568Z,48.07
2023-03-19T07:49:16.612Z,42.93
2023-03-19T07:51:45.984Z,40.00
2023-03-19T07:54:14.949Z,32.07
2023-03-19T07:56:43.952Z,31.30
2023-03-19T07:59:14.543Z,26.73
2023-03-19T08:01:43.729Z,33.03
2023-03-19T08:04:13.591Z,255.70
2023-03-19T08:06:43.207Z,108.53
2023-03-19T08:09:12.445Z,84.77
2023-03-19T08:11:41.386Z,51.63
2023-03-19T08:14:22.148Z,42.47
2023-03-19T08:16:52.392Z,46.97
2023-03-19T08:19:21.460Z,72.77
2023-03-19T08:21:50.759Z,48.67
2023-03-19T08:24:20.333Z,47.77
2023-03-19T08:26:50.748Z,41.70
2023-03-19T08:29:21.874Z,35.13
2023-03-19T08:31:51.412Z,35.43
2023-03-19T08:34:20.650Z,38.63
2023-03-19T08:36:49.728Z,41.17
2023-03-19T08:39:19.262Z,41.10
2023-03-19T08:41:48.290Z,37.30
2023-03-19T08:44:17.356Z,37.97
2023-03-19T08:46:47.928Z,42.23
2023-03-19T08:49:24.062Z,61.97
2023-03-19T08:51:53.083Z,88.60
2023-03-19T08:54:23.024Z,94.00
2023-03-19T08:56:52.637Z,75.50
2023-03-19T08:59:21.640Z,88.80
2023-03-19T09:01:54.777Z,78.60
2023-03-19T09:04:24.196Z,72.50
2023-03-19T09:06:53.210Z,70.77
2023-03-19T09:09:23.827Z,122.33
2023-03-19T09:11:52.851Z,47.83
2023-03-19T09:14:23.218Z,101.67
2023-03-19T09:16:55.152Z,93.87
2023-03-19T09:19:24.341Z,115.53
2023-03-19T09:21:55.406Z,111.27
2023-03-19T09:24:27.784Z,144.63
2023-03-19T09:26:56.950Z,118.37
2023-03-19T09:29:25.935Z,99.23
2023-03-19T09:31:56.536Z,80.00
2023-03-19T09:34:44.250Z,74.23
2023-03-19T09:37:13.494Z,64.37
2023-03-19T09:39:42.745Z,68.17
2023-03-19T09:42:38.661Z,76.33
2023-03-19T09:45:16.272Z,87.10
2023-03-19T09:47:49.179Z,78.17
2023-03-19T09:50:20.773Z,73.37
2023-03-19T09:52:52.941Z,57.63
2023-03-19T09:55:36.008Z,56.67
2023-03-19T09:58:14.808Z,58.33
2023-03-19T10:01:04.349Z,56.00
2023-03-19T10:03:49.331Z,56.13
2023-03-19T10:06:29.482Z,50.73
2023-03-19T10:09:12.802Z,53.73
2023-03-19T10:11:56.494Z,55.47
2023-03-19T10:14:47.944Z,55.73
2023-03-19T10:17:21.074Z,48.40
2023-03-19T10:19:55.085Z,43.07
2023-03-19T10:22:27.462Z,44.37
2023-03-19T10:24:59.606Z,40.87
2023-03-19T10:27:30.321Z,41.43
2023-03-19T10:29:59.369Z,48.00
2023-03-19T10:32:37.554Z,50.73
2023-03-19T10:35:18.061Z,52.63
2023-03-19T10:37:47.415Z,50.77
2023-03-19T10:40:24.063Z,57.43
2023-03-19T10:43:14.830Z,54.03
2023-03-19T10:45:44.041Z,43.50
2023-03-19T10:48:16.916Z,54.70
2023-03-19T10:50:53.720Z,47.77
2023-03-19T10:53:32.278Z,46.40
2023-03-19T10:56:04.356Z,47.87
2023-03-19T10:58:34.864Z,66.33
2023-03-19T11:01:07.892Z,79.60
2023-03-19T11:03:39.117Z,82.40
2023-03-19T11:06:34.606Z,89.17
2023-03-19T11:09:14.337Z,97.67
2023-03-19T11:11:47.951Z,111.87
2023-03-19T11:14:21.692Z,93.30
2023-03-19T11:16:53.539Z,92.70
2023-03-19T11:19:24.652Z,93.67
2023-03-19T11:22:16.242Z,101.60
2023-03-19T11:24:52.789Z,82.93
2023-03-19T11:27:29.993Z,106.00
2023-03-19T11:29:59.832Z,74.57
2023-03-19T11:33:00.376Z,61.03
2023-03-19T11:35:33.483Z,54.43
2023-03-19T11:38:05.640Z,104.07
2023-03-19T11:40:45.643Z,72.40
2023-03-19T11:43:39.045Z,52.77
2023-03-19T11:46:19.803Z,94.83
2023-03-19T11:49:10.168Z,138.83
2023-03-19T11:51:47.216Z,176.33
2023-03-19T11:54:25.377Z,102.63
2023-03-19T11:57:01.087Z,105.87
2023-03-19T12:00:06.667Z,136.57
2023-03-19T12:03:29.766Z,172.77
2023-03-19T12:06:01.650Z,61.40
2023-03-19T12:08:39.573Z,70.80
2023-03-19T12:11:26.044Z,167.57
2023-03-19T12:14:49.272Z,78.90
2023-03-19T12:17:41.394Z,121.90
2023-03-19T12:20:21.663Z,157.63
2023-03-19T12:23:01.966Z,143.30
2023-03-19T12:25:47.677Z,77.03
2023-03-19T12:28:25.274Z,41.93
2023-03-19T12:31:08.162Z,21.50
2023-03-19T12:33:46.778Z,23.93
2023-03-19T12:36:22.434Z,19.70
2023-03-19T12:39:00.839Z,17.07
2023-03-19T12:41:32.522Z,13.03
2023-03-19T12:44:28.619Z,15.17
2023-03-19T12:47:02.307Z,11.93
2023-03-19T12:49:36.611Z,12.30
2023-03-19T12:52:18.145Z,19.17
2023-03-19T12:54:51.762Z,10.57
2023-03-19T12:57:28.898Z,11.37
2023-03-19T13:00:25.844Z,8.50
2023-03-19T13:03:05.386Z,9.97
2023-03-19T13:05:37.978Z,6.93
2023-03-19T13:08:14.381Z,6.60
2023-03-19T13:10:43.317Z,6.47
2023-03-19T13:13:27.289Z,7.13
2023-03-19T13:16:14.191Z,6.67
2023-03-19T13:18:53.052Z,11.17
2023-03-19T13:21:26.237Z,9.07
2023-03-19T13:24:05.996Z,18.87
2023-03-19T13:26:36.348Z,32.47
2023-03-19T13:29:11.575Z,13.23
2023-03-19T13:31:42.169Z,6.50
2023-03-19T13:34:22.863Z,8.60
2023-03-19T13:36:56.908Z,5.30
2023-03-19T13:39:30.187Z,4.77
2023-03-19T13:42:39.290Z,6.17
2023-03-19T13:45:29.911Z,4.83
2023-03-19T13:48:33.496Z,7.03
2023-03-19T13:51:04.497Z,5.90
2023-03-19T13:53:42.676Z,4.03
2023-03-19T13:56:29.183Z,3.30
2023-03-19T13:59:25.374Z,3.17
2023-03-19T14:01:57.877Z,2.37
2023-03-19T14:04:31.071Z,2.03
2023-03-19T14:07:11.514Z,2.27
2023-03-19T14:09:43.864Z,2.17
2023-03-19T14:12:22.864Z,2.17
2023-03-19T14:14:55.662Z,2.63
2023-03-19T14:17:27.831Z,2.87
2023-03-19T14:20:07.202Z,2.20
2023-03-19T14:22:39.915Z,2.30
2023-03-19T14:25:20.594Z,2.30
2023-03-19T14:27:51.466Z,3.03
2023-03-19T14:30:31.100Z,2.33
2023-03-19T14:33:02.801Z,2.60
2023-03-19T14:35:43.082Z,2.80
2023-03-19T14:38:17.421Z,2.80
2023-03-19T14:40:48.861Z,3.17
2023-03-19T14:43:34.937Z,3.57
2023-03-19T14:46:05.415Z,4.03
2023-03-19T14:49:03.306Z,4.37
2023-03-19T14:51:54.854Z,3.97
2023-03-19T14:54:32.329Z,4.80
2023-03-19T14:57:08.317Z,3.90
2023-03-19T14:59:41.200Z,4.57
2023-03-19T15:02:32.864Z,4.70
2023-03-19T15:05:03.541Z,4.00
2023-03-19T15:07:38.725Z,3.80
2023-03-19T15:10:15.211Z,3.80
2023-03-19T15:13:10.178Z,3.97
2023-03-19T15:16:03.075Z,4.30
2023-03-19T15:18:32.385Z,4.03
2023-03-19T15:21:01.346Z,4.60
2023-03-19T15:23:32.748Z,5.60
2023-03-19T15:26:03.436Z,5.20
2023-03-19T15:28:54.019Z,5.07
2023-03-19T15:31:34.210Z,4.60
2023-03-19T15:34:21.230Z,12.17
2023-03-19T15:36:54.349Z,7.83
2023-03-19T15:39:28.439Z,7.10
2023-03-19T15:42:00.903Z,7.63
2023-03-19T15:44:34.740Z,7.97
2023-03-19T15:47:26.105Z,7.87
2023-03-19T15:49:58.931Z,7.97
2023-03-19T15:52:50.151Z,8.37
2023-03-19T15:55:22.073Z,8.87
2023-03-19T15:57:51.413Z,9.40
2023-03-19T16:00:21.118Z,10.07
2023-03-19T16:02:53.969Z,9.30
2023-03-19T16:05:27.991Z,9.23
2023-03-19T16:08:01.314Z,10.23
2023-03-19T16:10:49.745Z,9.50
2023-03-19T16:13:39.172Z,9.60
2023-03-19T16:16:15.346Z,9.10
2023-03-19T16:18:50.760Z,9.93
2023-03-19T16:21:26.764Z,10.47
2023-03-19T16:24:00.014Z,13.10
2023-03-19T16:26:41.986Z,9.40
2023-03-19T16:29:21.482Z,9.97
2023-03-19T16:32:20.237Z,9.53
2023-03-19T16:34:50.709Z,13.57
2023-03-19T16:37:34.877Z,10.87
2023-03-19T16:40:50.110Z,10.93
2023-03-19T16:43:26.273Z,10.80
2023-03-19T16:46:09.108Z,10.77
2023-03-19T16:48:41.082Z,11.07
2023-03-19T16:51:17.986Z,10.87
2023-03-19T16:53:49.653Z,10.97
2023-03-19T16:56:19.410Z,11.07
2023-03-19T16:58:49.943Z,13.30
2023-03-19T17:01:21.824Z,11.13
2023-03-19T17:03:51.580Z,11.07
2023-03-19T17:06:21.694Z,11.17
2023-03-19T17:08:50.893Z,11.17
2023-03-19T17:11:25.754Z,10.90
2023-03-19T17:13:57.584Z,12.33
2023-03-19T17:16:27.835Z,11.77
2023-03-19T17:19:19.546Z,10.93
2023-03-19T17:21:49.769Z,11.93
2023-03-19T17:24:24.900Z,11.07
2023-03-19T17:26:55.034Z,12.97
2023-03-19T17:29:26.338Z,11.97
2023-03-19T17:31:56.684Z,12.07
2023-03-19T17:34:27.625Z,11.67
2023-03-19T17:36:58.466Z,16.80
2023-03-19T17:39:32.978Z,11.93
2023-03-19T17:42:02.661Z,11.53
2023-03-19T17:44:34.388Z,11.53
2023-03-19T17:47:03.649Z,11.63
2023-03-19T17:49:33.131Z,11.00
2023-03-19T17:52:02.844Z,10.63
2023-03-19T17:54:31.852Z,11.27
2023-03-19T17:57:04.520Z,10.47
2023-03-19T17:59:44.288Z,10.73
2023-03-19T18:02:36.396Z,10.17
2023-03-19T18:05:05.677Z,11.60
2023-03-19T18:07:34.772Z,10.53
2023-03-19T18:10:04.074Z,11.93
2023-03-19T18:12:33.014Z,12.13
2023-03-19T18:15:03.858Z,10.83
2023-03-19T18:17:32.920Z,10.60
2023-03-19T18:20:06.518Z,10.43
2023-03-19T18:22:36.909Z,10.17
2023-03-19T18:25:06.247Z,51.90
2023-03-19T18:27:35.346Z,12.23
2023-03-19T18:30:06.571Z,10.30
2023-03-19T18:32:35.624Z,10.73
2023-03-19T18:35:05.013Z,10.33
2023-03-19T18:37:36.441Z,11.20
2023-03-19T18:40:06.155Z,10.90
2023-03-19T18:42:35.116Z,10.87
2023-03-19T18:45:06.487Z,10.73
2023-03-19T18:47:35.912Z,12.10
2023-03-19T18:50:10.472Z,12.03
2023-03-19T18:52:39.411Z,11.50
2023-03-19T18:55:09.258Z,11.57
2023-03-19T18:57:39.988Z,11.30
2023-03-19T19:00:18.637Z,12.53
2023-03-19T19:02:49.133Z,11.90
2023-03-19T19:05:22.547Z,11.23
2023-03-19T19:07:52.338Z,11.27
2023-03-19T19:10:21.818Z,9.93
2023-03-19T19:12:52.685Z,10.53
2023-03-19T19:15:26.401Z,11.20
2023-03-19T19:17:56.830Z,11.33
2023-03-19T19:20:28.024Z,11.27
2023-03-19T19:22:57.733Z,11.90
2023-03-19T19:25:28.862Z,12.10
2023-03-19T19:28:22.093Z,11.87
2023-03-19T19:30:55.039Z,11.37
2023-03-19T19:33:25.728Z,11.80
2023-03-19T19:35:57.988Z,11.80
2023-03-19T19:38:27.742Z,11.70
2023-03-19T19:41:00.596Z,11.60
2023-03-19T19:43:32.342Z,11.83
2023-03-19T19:46:03.536Z,12.90
2023-03-19T19:48:33.019Z,13.63
2023-03-19T19:51:01.994Z,13.40
2023-03-19T19:53:31.167Z,14.27
2023-03-19T19:56:00.506Z,13.93
2023-03-19T19:58:31.764Z,17.47
2023-03-19T20:01:04.473Z,15.43
2023-03-19T20:03:35.390Z,15.83
2023-03-19T20:06:04.384Z,234.83
2023-03-19T20:08:33.199Z,271.50
2023-03-19T20:11:02.389Z,202.80
2023-03-19T20:13:34.276Z,28.03
2023-03-19T20:16:05.595Z,16.53
2023-03-19T20:18:36.264Z,15.03
2023-03-19T20:21:07.171Z,15.53
2023-03-19T20:23:36.299Z,15.63
2023-03-19T20:26:05.337Z,16.63
2023-03-19T20:28:38.979Z,14.20
2023-03-19T20:31:17.167Z,15.70
2023-03-19T20:33:46.528Z,15.50
2023-03-19T20:36:17.312Z,16.77
2023-03-19T20:38:46.947Z,18.93
2023-03-19T20:41:21.753Z,19.73
2023-03-19T20:43:52.871Z,20.63
2023-03-19T20:46:24.862Z,23.00
2023-03-19T20:49:19.628Z,23.60
2023-03-19T20:51:54.013Z,41.40
2023-03-19T20:54:24.006Z,39.83
2023-03-19T20:56:53.108Z,43.70
2023-03-19T20:59:22.397Z,41.63
2023-03-19T21:01:56.686Z,47.20
2023-03-19T21:04:25.780Z,55.40
2023-03-19T21:06:54.772Z,57.90
2023-03-19T21:09:26.045Z,49.03
2023-03-19T21:11:55.044Z,41.00
2023-03-19T21:14:27.447Z,39.37
2023-03-19T21:16:58.108Z,36.83
2023-03-19T21:19:27.037Z,24.87
2023-03-19T21:21:56.356Z,51.40
2023-03-19T21:24:27.031Z,43.43
2023-03-19T21:26:57.065Z,26.43
2023-03-19T21:29:31.497Z,21.00
2023-03-19T21:32:01.812Z,21.90
2023-03-19T21:34:30.790Z,25.03
2023-03-19T21:36:59.610Z,23.33
2023-03-19T21:39:28.644Z,23.17
2023-03-19T21:41:58.265Z,23.20
2023-03-19T21:44:29.888Z,27.47
2023-03-19T21:46:58.915Z,66.57
2023-03-19T21:49:30.240Z,39.00
2023-03-19T21:52:04.008Z,38.53
2023-03-19T21:54:32.984Z,44.30
2023-03-19T21:57:02.661Z,90.90
2023-03-19T21:59:34.155Z,58.60
2023-03-19T22:02:04.367Z,66.83
2023-03-19T22:04:34.830Z,68.77
2023-03-19T22:07:03.849Z,62.77
2023-03-19T22:09:33.192Z,63.37
2023-03-19T22:12:02.435Z,59.13
2023-03-19T22:14:31.808Z,60.03
2023-03-19T22:17:01.301Z,67.67
2023-03-19T22:19:30.282Z,99.27
2023-03-19T22:22:00.754Z,69.47
2023-03-19T22:24:29.755Z,75.40
2023-03-19T22:26:59.749Z,67.67
2023-03-19T22:29:29.096Z,62.17
2023-03-19T22:31:58.387Z,54.47
2023-03-19T22:34:29.168Z,53.33
2023-03-19T22:37:00.732Z,61.97
2023-03-19T22:39:30.432Z,57.50
2023-03-19T22:41:59.301Z,56.30
2023-03-19T22:44:32.086Z,60.23
2023-03-19T22:47:03.297Z,69.43
2023-03-19T22:49:33.817Z,80.60
2023-03-19T22:52:04.323Z,64.57
2023-03-19T22:54:53.949Z,52.60
2023-03-19T22:57:23.002Z,59.30
2023-03-19T22:59:52.371Z,78.87
2023-03-19T23:02:21.267Z,87.70
2023-03-19T23:04:50.186Z,78.93
2023-03-19T23:07:20.809Z,70.30
2023-03-19T23:09:49.720Z,77.57
2023-03-19T23:12:18.699Z,82.40
2023-03-19T23:14:47.634Z,82.37
2023-03-19T23:17:18.812Z,98.00
2023-03-19T23:19:47.765Z,118.67
2023-03-19T23:22:18.037Z,126.20
2023-03-19T23:24:48.433Z,118.20
2023-03-19T23:27:25.277Z,111.77
2023-03-19T23:29:54.799Z,123.13
2023-03-19T23:32:23.803Z,108.20
2023-03-19T23:35:01.818Z,134.47
2023-03-19T23:37:31.110Z,120.87
2023-03-19T23:40:01.962Z,120.37
2023-03-19T23:42:33.421Z,123.50
2023-03-19T23:45:04.307Z,117.33
2023-03-19T23:47:33.959Z,96.00
2023-03-19T23:50:02.921Z,108.57
2023-03-19T23:52:31.754Z,113.47
2023-03-19T23:55:02.157Z,102.07
2023-03-19T23:57:31.316Z,117.97
